Time,TemperatureF,DewpointF,PressureIn,WindDirection,WindDirectionDegrees,WindSpeedMPH,WindSpeedGustMPH,Humidity,HourlyPrecipIn,Conditions,Clouds,dailyrainin,SolarRadiationWatts/m^2,SoftwareType,DateUTC
2013-08-30 00:02:00,84.0,55.0,-100.00,WNW,296,4.0,16.0,37,0.00,,,0.00,0.000000,,2013-08-30 07:02:00,
2013-08-30 00:12:00,84.0,55.0,-100.00,WNW,296,4.0,16.0,37,0.00,,,0.00,0.000000,,2013-08-30 07:12:00,
2013-08-30 00:21:00,84.0,55.0,-100.00,WNW,296,4.0,16.0,37,0.00,,,0.00,0.000000,,2013-08-30 07:21:00,
2013-08-30 00:53:00,82.0,53.0,-100.00,South,172,1.0,7.0,37,0.00,,,0.00,0.000000,,2013-08-30 07:53:00,
2013-08-30 01:03:00,82.0,53.0,-100.00,South,172,1.0,7.0,37,0.00,,,0.00,0.000000,,2013-08-30 08:03:00,
2013-08-30 01:11:00,82.0,53.0,-100.00,South,172,1.0,7.0,37,0.00,,,0.00,0.000000,,2013-08-30 08:11:00,
2013-08-30 01:22:00,82.0,53.0,-100.00,South,172,1.0,7.0,37,0.00,,,0.00,0.000000,,2013-08-30 08:22:00,
2013-08-30 01:52:00,79.0,50.0,-100.00,SSW,205,0.0,9.0,36,0.00,,,0.00,0.000000,,2013-08-30 08:52:00,
2013-08-30 02:01:00,79.0,50.0,-100.00,SSW,205,0.0,9.0,36,0.00,,,0.00,0.000000,,2013-08-30 09:01:00,
2013-08-30 02:12:00,79.0,50.0,-100.00,SSW,205,0.0,9.0,36,0.00,,,0.00,0.000000,,2013-08-30 09:12:00,
2013-08-30 02:22:00,79.0,50.0,-100.00,SSW,205,0.0,9.0,36,0.00,,,0.00,0.000000,,2013-08-30 09:22:00,
2013-08-30 02:53:00,81.0,54.0,-100.00,WNW,301,5.0,7.0,40,0.00,,,0.00,0.000000,,2013-08-30 09:53:00,
2013-08-30 03:03:00,81.0,54.0,-100.00,WNW,301,5.0,7.0,40,0.00,,,0.00,0.000000,,2013-08-30 10:03:00,
2013-08-30 03:12:00,81.0,54.0,-100.00,WNW,301,5.0,7.0,40,0.00,,,0.00,0.000000,,2013-08-30 10:12:00,
2013-08-30 03:23:00,81.0,54.0,-100.00,WNW,301,5.0,7.0,40,0.00,,,0.00,0.000000,,2013-08-30 10:23:00,
2013-08-30 03:53:00,78.0,56.0,-100.00,WSW,249,1.0,7.0,47,0.00,,,0.00,0.000000,,2013-08-30 10:53:00,
2013-08-30 04:03:00,78.0,56.0,-100.00,WSW,249,1.0,7.0,47,0.00,,,0.00,0.000000,,2013-08-30 11:03:00,
2013-08-30 04:12:00,78.0,56.0,-100.00,WSW,249,1.0,7.0,47,0.00,,,0.00,0.000000,,2013-08-30 11:12:00,
2013-08-30 04:22:00,78.0,56.0,-100.00,WSW,249,1.0,7.0,47,0.00,,,0.00,0.000000,,2013-08-30 11:22:00,
2013-08-30 04:52:00,77.0,55.0,-100.00,NW,308,2.0,7.0,46,0.00,,,0.00,0.000000,,2013-08-30 11:52:00,
2013-08-30 05:01:00,77.0,55.0,-100.00,NW,308,2.0,7.0,46,0.00,,,0.00,0.000000,,2013-08-30 12:01:00,
2013-08-30 05:12:00,77.0,55.0,-100.00,NW,308,2.0,7.0,46,0.00,,,0.00,0.000000,,2013-08-30 12:12:00,
2013-08-30 05:21:00,77.0,55.0,-100.00,NW,308,2.0,7.0,46,0.00,,,0.00,0.000000,,2013-08-30 12:21:00,
2013-08-30 05:52:00,78.0,56.0,-100.00,NW,313,0.0,7.0,47,0.00,,,0.00,0.000000,,2013-08-30 12:52:00,
2013-08-30 06:02:00,78.0,56.0,-100.00,NW,313,0.0,7.0,47,0.00,,,0.00,0.000000,,2013-08-30 13:02:00,
2013-08-30 06:11:00,78.0,56.0,-100.00,NW,313,0.0,7.0,47,0.00,,,0.00,0.000000,,2013-08-30 13:11:00,
2013-08-30 06:21:00,78.0,56.0,-100.00,NW,313,0.0,7.0,47,0.00,,,0.00,0.000000,,2013-08-30 13:21:00,
2013-08-30 06:52:00,75.0,55.0,-100.00,East,95,0.0,5.0,49,0.00,,,0.00,0.000000,,2013-08-30 13:52:00,
2013-08-30 07:02:00,75.0,55.0,-100.00,East,95,0.0,5.0,49,0.00,,,0.00,0.000000,,2013-08-30 14:02:00,
2013-08-30 07:11:00,75.0,55.0,-100.00,East,95,0.0,5.0,49,0.00,,,0.00,0.000000,,2013-08-30 14:11:00,
2013-08-30 07:21:00,75.0,55.0,-100.00,East,95,0.0,5.0,49,0.00,,,0.00,0.000000,,2013-08-30 14:21:00,
2013-08-30 07:52:00,82.0,54.0,-100.00,NE,48,0.0,4.0,38,0.00,,,0.00,89.000000,,2013-08-30 14:52:00,
2013-08-30 08:02:00,82.0,54.0,-100.00,NE,48,0.0,4.0,38,0.00,,,0.00,89.000000,,2013-08-30 15:02:00,
2013-08-30 08:11:00,82.0,54.0,-100.00,NE,48,0.0,4.0,38,0.00,,,0.00,89.000000,,2013-08-30 15:11:00,
2013-08-30 08:22:00,82.0,54.0,-100.00,NE,48,0.0,4.0,38,0.00,,,0.00,89.000000,,2013-08-30 15:22:00,
2013-08-30 09:13:00,86.0,54.0,-100.00,ESE,120,0.0,5.0,33,0.00,,,0.00,343.000000,,2013-08-30 16:13:00,
2013-08-30 09:24:00,86.0,54.0,-100.00,ESE,120,0.0,5.0,33,0.00,,,0.00,343.000000,,2013-08-30 16:24:00,
2013-08-30 09:53:00,88.0,53.0,-100.00,ENE,74,5.0,10.0,30,0.00,,,0.00,607.000000,,2013-08-30 16:53:00,
2013-08-30 10:03:00,88.0,53.0,-100.00,ENE,74,5.0,10.0,30,0.00,,,0.00,607.000000,,2013-08-30 17:03:00,
2013-08-30 10:13:00,88.0,53.0,-100.00,ENE,74,5.0,10.0,30,0.00,,,0.00,607.000000,,2013-08-30 17:13:00,
2013-08-30 10:23:00,88.0,53.0,-100.00,ENE,74,5.0,10.0,30,0.00,,,0.00,607.000000,,2013-08-30 17:23:00,
2013-08-30 10:53:00,88.0,51.0,-100.00,ESE,109,4.0,10.0,28,0.00,,,-99.99,843.000000,,2013-08-30 17:53:00,
2013-08-30 11:02:00,88.0,51.0,-100.00,ESE,109,4.0,10.0,28,0.00,,,-99.99,843.000000,,2013-08-30 18:02:00,
2013-08-30 11:12:00,88.0,51.0,-100.00,ESE,109,4.0,10.0,28,0.00,,,-99.99,843.000000,,2013-08-30 18:12:00,
2013-08-30 11:21:00,88.0,51.0,-100.00,ESE,109,4.0,10.0,28,0.00,,,-99.99,843.000000,,2013-08-30 18:21:00,
2013-08-30 11:52:00,88.0,51.0,-100.00,ESE,102,4.0,10.0,28,0.00,,,0.00,948.000000,,2013-08-30 18:52:00,
2013-08-30 12:01:00,88.0,51.0,-100.00,ESE,102,4.0,10.0,28,0.00,,,0.00,948.000000,,2013-08-30 19:01:00,
2013-08-30 12:12:00,88.0,51.0,-100.00,ESE,102,4.0,10.0,28,0.00,,,0.00,948.000000,,2013-08-30 19:12:00,
2013-08-30 12:21:00,88.0,51.0,-100.00,ESE,102,4.0,10.0,28,0.00,,,0.00,948.000000,,2013-08-30 19:21:00,
2013-08-30 12:53:00,89.0,53.0,-100.00,ESE,106,5.0,13.0,29,0.00,,,0.00,864.000000,,2013-08-30 19:53:00,
2013-08-30 13:03:00,89.0,53.0,-100.00,ESE,106,5.0,13.0,29,0.00,,,0.00,864.000000,,2013-08-30 20:03:00,
2013-08-30 13:11:00,89.0,53.0,-100.00,ESE,106,5.0,13.0,29,0.00,,,0.00,864.000000,,2013-08-30 20:11:00,
2013-08-30 13:22:00,89.0,53.0,-100.00,ESE,106,5.0,13.0,29,0.00,,,0.00,864.000000,,2013-08-30 20:22:00,
2013-08-30 14:21:00,94.0,54.0,-100.00,ESE,108,3.0,14.0,26,0.00,,,0.00,1148.000000,,2013-08-30 21:21:00,
2013-08-30 14:55:00,95.0,54.0,-100.00,SSE,159,4.0,15.0,25,0.00,,,0.00,1179.000000,,2013-08-30 21:55:00,
2013-08-30 15:04:00,95.0,54.0,-100.00,SSE,159,4.0,15.0,25,0.00,,,0.00,1179.000000,,2013-08-30 22:04:00,
2013-08-30 15:24:00,95.0,54.0,-100.00,SSE,159,4.0,15.0,25,0.00,,,0.00,1179.000000,,2013-08-30 22:24:00,
2013-08-30 15:54:00,94.0,55.0,-100.00,ESE,109,6.0,17.0,27,0.00,,,0.00,951.000000,,2013-08-30 22:54:00,
2013-08-30 16:03:00,94.0,55.0,-100.00,ESE,109,6.0,17.0,27,0.00,,,0.00,951.000000,,2013-08-30 23:03:00,
2013-08-30 16:12:00,94.0,55.0,-100.00,ESE,109,6.0,17.0,27,0.00,,,0.00,951.000000,,2013-08-30 23:12:00,
2013-08-30 16:22:00,94.0,55.0,-100.00,ESE,109,6.0,17.0,27,0.00,,,0.00,951.000000,,2013-08-30 23:22:00,
2013-08-30 16:53:00,90.0,57.0,-100.00,SE,136,12.0,22.0,33,0.00,,,0.00,703.000000,,2013-08-30 23:53:00,
2013-08-30 17:02:00,90.0,57.0,-100.00,SE,136,12.0,22.0,33,0.00,,,0.00,703.000000,,2013-08-31 00:02:00,
2013-08-30 17:11:00,90.0,57.0,-100.00,SE,136,12.0,22.0,33,0.00,,,0.00,703.000000,,2013-08-31 00:11:00,
2013-08-30 17:21:00,90.0,57.0,-100.00,SE,136,12.0,22.0,33,0.00,,,0.00,703.000000,,2013-08-31 00:21:00,
2013-08-30 17:52:00,87.0,55.0,-100.00,SSE,147,6.0,23.0,34,0.00,,,0.00,243.000000,,2013-08-31 00:52:00,
2013-08-30 18:01:00,87.0,55.0,-100.00,SSE,147,6.0,23.0,34,0.00,,,0.00,243.000000,,2013-08-31 01:01:00,
2013-08-30 18:11:00,87.0,55.0,-100.00,SSE,147,6.0,23.0,34,0.00,,,0.00,243.000000,,2013-08-31 01:11:00,
2013-08-30 18:21:00,87.0,55.0,-100.00,SSE,147,6.0,23.0,34,0.00,,,0.00,243.000000,,2013-08-31 01:21:00,
2013-08-30 18:52:00,86.0,57.0,-100.00,SSE,165,10.0,17.0,37,0.00,,,0.00,111.000000,,2013-08-31 01:52:00,
2013-08-30 19:02:00,86.0,57.0,-100.00,SSE,165,10.0,17.0,37,0.00,,,0.00,111.000000,,2013-08-31 02:02:00,
2013-08-30 19:12:00,86.0,57.0,-100.00,SSE,165,10.0,17.0,37,0.00,,,0.00,111.000000,,2013-08-31 02:12:00,
2013-08-30 19:22:00,86.0,57.0,-100.00,SSE,165,10.0,17.0,37,0.00,,,0.00,111.000000,,2013-08-31 02:22:00,
2013-08-30 19:52:00,84.0,58.0,-100.00,South,183,9.0,20.0,42,0.00,,,0.00,17.000000,,2013-08-31 02:52:00,
2013-08-30 20:02:00,84.0,58.0,-100.00,South,183,9.0,20.0,42,0.00,,,0.00,17.000000,,2013-08-31 03:02:00,
2013-08-30 20:12:00,84.0,58.0,-100.00,South,183,9.0,20.0,42,0.00,,,0.00,17.000000,,2013-08-31 03:12:00,
2013-08-30 20:22:00,84.0,58.0,-100.00,South,183,9.0,20.0,42,0.00,,,0.00,17.000000,,2013-08-31 03:22:00,
2013-08-30 20:54:00,83.0,61.0,-100.00,SSW,193,18.0,24.0,47,0.00,,,0.00,0.000000,,2013-08-31 03:54:00,
2013-08-30 21:05:00,83.0,61.0,-100.00,SSW,193,18.0,24.0,47,0.00,,,0.00,0.000000,,2013-08-31 04:05:00,
2013-08-30 21:14:00,83.0,61.0,-100.00,SSW,193,18.0,24.0,47,0.00,,,0.00,0.000000,,2013-08-31 04:14:00,
2013-08-30 21:24:00,83.0,61.0,-100.00,SSW,193,18.0,24.0,47,0.00,,,0.00,0.000000,,2013-08-31 04:24:00,
2013-08-30 21:54:00,83.0,58.0,-100.00,WSW,248,5.0,19.0,43,0.00,,,0.00,0.000000,,2013-08-31 04:54:00,
2013-08-30 22:04:00,83.0,58.0,-100.00,WSW,248,5.0,19.0,43,0.00,,,0.00,0.000000,,2013-08-31 05:04:00,
2013-08-30 22:13:00,83.0,58.0,-100.00,WSW,248,5.0,19.0,43,0.00,,,0.00,0.000000,,2013-08-31 05:13:00,
2013-08-30 22:23:00,83.0,58.0,-100.00,WSW,248,5.0,19.0,43,0.00,,,0.00,0.000000,,2013-08-31 05:23:00,
2013-08-30 22:52:00,82.0,55.0,-100.00,WSW,256,6.0,8.0,40,0.00,,,0.00,0.000000,,2013-08-31 05:52:00,
2013-08-30 23:02:00,82.0,55.0,-100.00,WSW,256,6.0,8.0,40,0.00,,,0.00,0.000000,,2013-08-31 06:02:00,
2013-08-30 23:12:00,82.0,55.0,-100.00,WSW,256,6.0,8.0,40,0.00,,,0.00,0.000000,,2013-08-31 06:12:00,
2013-08-30 23:22:00,82.0,55.0,-100.00,WSW,256,6.0,8.0,40,0.00,,,0.00,0.000000,,2013-08-31 06:22:00,
2013-08-30 23:52:00,82.0,53.0,-100.00,West,279,3.0,9.0,37,0.00,,,0.00,0.000000,,2013-08-31 06:52:00,